createdAt,value
2023-01-29T00:02:23.569Z,98571.27
2023-01-29T00:04:51.577Z,98562.77
2023-01-29T00:07:18.845Z,98563.96
2023-01-29T00:09:46.349Z,98567.32
2023-01-29T00:12:13.877Z,98572.73
2023-01-29T00:14:41.087Z,98572.75
2023-01-29T00:17:10.639Z,98569.73
2023-01-29T00:19:38.546Z,98569.84
2023-01-29T00:22:05.907Z,98572.16
2023-01-29T00:24:33.307Z,98579.17
2023-01-29T00:27:00.697Z,98574.44
2023-01-29T00:29:28.156Z,98580.74
2023-01-29T00:31:55.889Z,98584.70
2023-01-29T00:34:24.212Z,98584.39
2023-01-29T00:36:51.578Z,98585.08
2023-01-29T00:39:29.351Z,98587.82
2023-01-29T00:42:21.834Z,98590.41
2023-01-29T00:44:58.641Z,98595.41
2023-01-29T00:47:33.977Z,98596.77
2023-01-29T00:50:03.004Z,98602.21
2023-01-29T00:52:30.652Z,98596.90
2023-01-29T00:55:00.497Z,98597.43
2023-01-29T00:57:30.292Z,98599.64
2023-01-29T00:59:58.126Z,98596.26
2023-01-29T01:02:44.236Z,98601.41
2023-01-29T01:05:20.171Z,98603.65
2023-01-29T01:07:50.023Z,98610.16
2023-01-29T01:10:24.676Z,98610.84
2023-01-29T01:12:55.058Z,98604.16
2023-01-29T01:15:24.757Z,98602.77
2023-01-29T01:18:00.065Z,98597.16
2023-01-29T01:20:29.681Z,98591.77
2023-01-29T01:22:57.497Z,98590.25
2023-01-29T01:25:26.790Z,98593.30
2023-01-29T01:27:54.982Z,98593.42
2023-01-29T01:30:23.479Z,98591.16
2023-01-29T01:32:50.901Z,98585.55
2023-01-29T01:35:18.283Z,98584.20
2023-01-29T01:37:45.564Z,98588.16
2023-01-29T01:40:20.695Z,98585.13
2023-01-29T01:42:56.900Z,98579.36
2023-01-29T01:45:27.136Z,98571.89
2023-01-29T01:48:04.297Z,98569.06
2023-01-29T01:50:47.324Z,98564.86
2023-01-29T01:53:19.292Z,98570.37
2023-01-29T01:55:51.127Z,98565.12
2023-01-29T01:58:37.432Z,98554.73
2023-01-29T02:04:19.712Z,98546.05
2023-01-29T02:07:06.798Z,98542.27
2023-01-29T02:09:41.083Z,98552.65
2023-01-29T02:12:13.674Z,98552.64
2023-01-29T02:14:43.007Z,98554.34
2023-01-29T02:17:16.379Z,98556.05
2023-01-29T02:20:08.184Z,98548.40
2023-01-29T02:23:18.570Z,98549.77
2023-01-29T02:26:17.195Z,98546.04
2023-01-29T02:28:53.928Z,98543.09
2023-01-29T02:31:32.818Z,98543.10
2023-01-29T02:34:19.141Z,98542.27
2023-01-29T02:36:52.713Z,98541.80
2023-01-29T02:39:44.947Z,98540.80
2023-01-29T02:42:31.534Z,98548.49
2023-01-29T02:45:04.235Z,98547.45
2023-01-29T02:47:40.614Z,98544.77
2023-01-29T02:50:37.989Z,98550.92
2023-01-29T02:53:14.312Z,98550.58
2023-01-29T02:55:56.189Z,98553.29
2023-01-29T02:58:42.568Z,98557.27
2023-01-29T03:01:38.316Z,98553.98
2023-01-29T03:04:13.627Z,98554.16
2023-01-29T03:06:49.737Z,98563.68
2023-01-29T03:09:23.287Z,98564.55
2023-01-29T03:12:28.797Z,98565.58
2023-01-29T03:15:14.581Z,98562.02
2023-01-29T03:17:54.971Z,98560.88
2023-01-29T03:20:29.969Z,98566.46
2023-01-29T03:23:04.656Z,98572.91
2023-01-29T03:25:53.974Z,98575.46
2023-01-29T03:28:41.789Z,98578.25
2023-01-29T03:31:33.152Z,98585.05
2023-01-29T03:34:25.075Z,98583.82
2023-01-29T03:37:04.487Z,98578.91
2023-01-29T03:39:32.149Z,98579.27
2023-01-29T03:42:02.084Z,98573.36
2023-01-29T03:44:52.478Z,98572.35
2023-01-29T03:47:38.159Z,98568.30
2023-01-29T03:50:20.651Z,98564.56
2023-01-29T03:53:04.159Z,98559.96
2023-01-29T03:55:42.526Z,98552.67
2023-01-29T03:58:36.402Z,98541.48
2023-01-29T04:01:12.083Z,98541.69
2023-01-29T04:03:48.064Z,98544.47
2023-01-29T04:06:21.208Z,98549.11
2023-01-29T04:08:58.088Z,98558.83
2023-01-29T04:11:27.998Z,98559.82
2023-01-29T04:13:56.759Z,98552.17
2023-01-29T04:16:29.944Z,98549.79
2023-01-29T04:18:58.228Z,98547.05
2023-01-29T04:21:26.631Z,98536.52
2023-01-29T04:23:54.623Z,98530.45
2023-01-29T04:26:37.704Z,98525.09
2023-01-29T04:29:40.493Z,98528.64
2023-01-29T04:32:39.203Z,98523.33
2023-01-29T04:35:12.623Z,98510.13
2023-01-29T04:38:06.187Z,98505.09
2023-01-29T04:40:56.144Z,98513.61
2023-01-29T04:43:28.904Z,98512.48
2023-01-29T04:46:16.034Z,98509.30
2023-01-29T04:49:01.844Z,98504.95
2023-01-29T04:51:59.246Z,98496.81
2023-01-29T04:54:58.895Z,98499.38
2023-01-29T04:58:04.294Z,98503.96
2023-01-29T05:00:38.707Z,98506.70
2023-01-29T05:03:10.161Z,98504.34
2023-01-29T05:05:39.786Z,98504.52
2023-01-29T05:08:08.492Z,98504.35
2023-01-29T05:10:36.256Z,98509.10
2023-01-29T05:13:05.975Z,98513.36
2023-01-29T05:15:50.947Z,98516.45
2023-01-29T05:18:18.353Z,98519.50
2023-01-29T05:20:47.398Z,98523.58
2023-01-29T05:23:22.878Z,98520.36
2023-01-29T05:25:52.367Z,98526.50
2023-01-29T05:28:19.953Z,98528.55
2023-01-29T05:30:49.659Z,98529.02
2023-01-29T05:33:25.200Z,98524.95
2023-01-29T05:35:52.974Z,98524.27
2023-01-29T05:38:20.995Z,98520.70
2023-01-29T05:40:48.589Z,98517.14
2023-01-29T05:43:22.032Z,98517.00
2023-01-29T05:46:07.984Z,98515.16
2023-01-29T05:48:35.522Z,98517.19
2023-01-29T05:51:04.992Z,98519.56
2023-01-29T05:53:33.818Z,98521.25
2023-01-29T05:56:25.881Z,98519.04
2023-01-29T05:58:53.198Z,98519.73
2023-01-29T06:01:26.325Z,98518.33
2023-01-29T06:03:53.780Z,98522.06
2023-01-29T06:06:21.400Z,98521.17
2023-01-29T06:08:48.819Z,98518.42
2023-01-29T06:11:18.827Z,98513.48
2023-01-29T06:13:46.307Z,98520.63
2023-01-29T06:16:14.574Z,98523.16
2023-01-29T06:18:42.551Z,98527.06
2023-01-29T06:21:12.896Z,98530.43
2023-01-29T06:23:40.654Z,98533.66
2023-01-29T06:26:11.210Z,98532.47
2023-01-29T06:28:40.096Z,98533.83
2023-01-29T06:31:24.988Z,98532.82
2023-01-29T06:33:56.330Z,98536.04
2023-01-29T06:36:23.737Z,98529.03
2023-01-29T06:38:50.994Z,98526.80
2023-01-29T06:41:20.279Z,98523.42
2023-01-29T06:43:48.320Z,98524.79
2023-01-29T06:46:15.421Z,98520.40
2023-01-29T06:48:43.314Z,98517.70
2023-01-29T06:51:11.957Z,98519.58
2023-01-29T06:53:40.452Z,98521.13
2023-01-29T06:56:08.324Z,98520.96
2023-01-29T06:58:39.162Z,98525.70
2023-01-29T07:01:09.740Z,98529.44
2023-01-29T07:03:37.591Z,98527.25
2023-01-29T07:06:05.943Z,98527.09
2023-01-29T07:08:37.484Z,98531.52
2023-01-29T07:11:05.664Z,98531.28
2023-01-29T07:13:33.530Z,98532.43
2023-01-29T07:16:02.651Z,98533.73
2023-01-29T07:18:31.397Z,98536.80
2023-01-29T07:20:58.942Z,98537.48
2023-01-29T07:23:26.706Z,98542.42
2023-01-29T07:25:54.113Z,98540.05
2023-01-29T07:28:21.331Z,98542.40
2023-01-29T07:30:48.575Z,98544.27
2023-01-29T07:33:15.712Z,98540.35
2023-01-29T07:35:44.209Z,98540.52
2023-01-29T07:38:12.204Z,98540.39
2023-01-29T07:40:39.712Z,98546.02
2023-01-29T07:43:08.131Z,98552.67
2023-01-29T07:45:37.319Z,98552.31
2023-01-29T07:48:06.000Z,98551.25
2023-01-29T07:50:35.089Z,98552.22
2023-01-29T07:53:03.031Z,98556.11
2023-01-29T07:55:32.189Z,98555.40
2023-01-29T07:58:01.938Z,98564.48
2023-01-29T08:00:31.702Z,98569.02
2023-01-29T08:03:07.779Z,98572.43
2023-01-29T08:05:35.387Z,98575.66
2023-01-29T08:08:07.038Z,98577.87
2023-01-29T08:10:36.140Z,98581.77
2023-01-29T08:13:04.924Z,98588.23
2023-01-29T08:15:33.010Z,98589.10
2023-01-29T08:18:02.410Z,98588.25
2023-01-29T08:20:29.721Z,98580.27
2023-01-29T08:23:06.361Z,98582.46
2023-01-29T08:25:35.324Z,98581.05
2023-01-29T08:28:02.837Z,98576.58
2023-01-29T08:30:33.492Z,98580.64
2023-01-29T08:33:00.979Z,98586.75
2023-01-29T08:35:28.492Z,98584.04
2023-01-29T08:38:00.101Z,98581.16
2023-01-29T08:40:29.582Z,98580.98
2023-01-29T08:43:07.023Z,98584.03
2023-01-29T08:45:37.900Z,98589.31
2023-01-29T08:48:05.642Z,98587.62
2023-01-29T08:50:35.254Z,98592.05
2023-01-29T08:53:05.215Z,98591.56
2023-01-29T08:55:32.410Z,98585.64
2023-01-29T08:57:59.778Z,98582.22
2023-01-29T09:00:27.109Z,98583.70
2023-01-29T09:02:54.443Z,98585.75
2023-01-29T09:05:21.900Z,98585.42
2023-01-29T09:07:49.267Z,98573.85
2023-01-29T09:10:19.188Z,98566.02
2023-01-29T09:12:47.434Z,98561.88
2023-01-29T09:15:15.199Z,98553.54
2023-01-29T09:17:43.816Z,98555.90
2023-01-29T09:20:11.674Z,98551.27
2023-01-29T09:22:39.052Z,98552.45
2023-01-29T09:25:07.337Z,98557.17
2023-01-29T09:27:34.715Z,98558.79
2023-01-29T09:30:01.976Z,98557.13
2023-01-29T09:35:18.571Z,98550.99
2023-01-29T09:37:50.297Z,98547.27
2023-01-29T09:40:52.083Z,98551.14
2023-01-29T09:43:28.002Z,98552.96
2023-01-29T09:46:03.567Z,98552.45
2023-01-29T09:48:34.795Z,98553.84
2023-01-29T09:51:11.161Z,98548.11
2023-01-29T09:53:49.970Z,98550.33
2023-01-29T09:56:21.967Z,98542.85
2023-01-29T09:58:50.008Z,98540.63
2023-01-29T10:01:39.434Z,98541.80
2023-01-29T10:04:36.853Z,98537.76
2023-01-29T10:07:10.283Z,98529.10
2023-01-29T10:10:07.995Z,98518.77
2023-01-29T10:13:00.027Z,98508.56
2023-01-29T10:15:47.142Z,98499.52
2023-01-29T10:18:53.822Z,98497.24
2023-01-29T10:21:42.784Z,98499.58
2023-01-29T10:24:30.876Z,98498.98
2023-01-29T10:27:00.499Z,98494.27
2023-01-29T10:29:29.476Z,98490.34
2023-01-29T10:32:05.533Z,98485.88
2023-01-29T10:34:39.010Z,98475.17
2023-01-29T10:37:24.823Z,98464.17
2023-01-29T10:39:52.203Z,98461.75
2023-01-29T10:42:34.976Z,98446.60
2023-01-29T10:45:16.059Z,98439.25
2023-01-29T10:48:06.809Z,98429.04
2023-01-29T10:50:58.172Z,98421.71
2023-01-29T10:53:49.614Z,98416.77
2023-01-29T10:56:33.813Z,98415.52
2023-01-29T10:59:09.302Z,98410.18
2023-01-29T11:01:36.671Z,98405.41
2023-01-29T11:04:07.190Z,98399.26
2023-01-29T11:06:36.668Z,98400.31
2023-01-29T11:09:29.168Z,98388.98
2023-01-29T11:12:20.198Z,98379.73
2023-01-29T11:14:56.416Z,98372.14
2023-01-29T11:17:25.702Z,98366.95
2023-01-29T11:19:58.101Z,98368.16
2023-01-29T11:22:28.409Z,98358.16
2023-01-29T11:25:20.573Z,98352.27
2023-01-29T11:27:51.536Z,98347.63
2023-01-29T11:30:27.831Z,98347.83
2023-01-29T11:33:10.356Z,98348.16
2023-01-29T11:35:37.866Z,98349.27
2023-01-29T11:38:17.569Z,98353.05
2023-01-29T11:40:45.988Z,98354.20
2023-01-29T11:43:31.686Z,98357.25
2023-01-29T11:46:12.688Z,98354.95
2023-01-29T11:48:48.553Z,98350.68
2023-01-29T11:51:27.748Z,98350.25
2023-01-29T11:54:02.749Z,98350.55
2023-01-29T11:56:43.568Z,98348.14
2023-01-29T11:59:43.345Z,98346.73
2023-01-29T12:02:42.650Z,98346.67
2023-01-29T12:05:27.958Z,98352.73
2023-01-29T12:08:00.655Z,98347.58
2023-01-29T12:10:41.374Z,98343.47
2023-01-29T12:13:12.408Z,98346.06
2023-01-29T12:15:41.405Z,98344.09
2023-01-29T12:18:36.248Z,98342.74
2023-01-29T12:21:06.045Z,98341.09
2023-01-29T12:23:50.550Z,98331.56
2023-01-29T12:26:33.301Z,98328.06
2023-01-29T12:29:16.328Z,98331.15
2023-01-29T12:31:55.884Z,98329.09
2023-01-29T12:34:49.741Z,98324.59
2023-01-29T12:37:29.327Z,98314.52
2023-01-29T12:39:56.801Z,98312.20
2023-01-29T12:42:26.071Z,98312.88
2023-01-29T12:44:59.209Z,98305.70
2023-01-29T12:47:40.725Z,98300.92
2023-01-29T12:50:37.222Z,98301.09
2023-01-29T12:53:32.751Z,98303.45
2023-01-29T12:56:08.242Z,98302.09
2023-01-29T12:58:55.355Z,98300.44
2023-01-29T13:01:46.425Z,98297.70
2023-01-29T13:04:26.469Z,98296.09
2023-01-29T13:07:00.489Z,98290.38
2023-01-29T13:09:31.130Z,98293.55
2023-01-29T13:12:10.723Z,98289.83
2023-01-29T13:14:56.263Z,98291.79
2023-01-29T13:17:38.934Z,98296.92
2023-01-29T13:20:20.432Z,98292.46
2023-01-29T13:22:49.698Z,98292.45
2023-01-29T13:26:16.892Z,98294.98
2023-01-29T13:28:50.532Z,98289.05
2023-01-29T13:31:19.815Z,98277.73
2023-01-29T13:34:35.901Z,98274.52
2023-01-29T13:37:31.164Z,98269.95
2023-01-29T13:40:45.804Z,98274.27
2023-01-29T13:43:39.719Z,98269.77
2023-01-29T13:46:32.674Z,98265.80
2023-01-29T13:49:05.402Z,98263.71
2023-01-29T13:52:07.339Z,98269.02
2023-01-29T13:55:14.525Z,98256.20
2023-01-29T13:58:05.091Z,98245.69
2023-01-29T14:00:50.553Z,98244.55
2023-01-29T14:03:18.768Z,98248.72
2023-01-29T14:05:57.819Z,98252.76
2023-01-29T14:08:44.012Z,98255.44
2023-01-29T14:11:21.777Z,98248.04
2023-01-29T14:13:52.873Z,98248.82
2023-01-29T14:16:21.170Z,98252.22
2023-01-29T14:19:18.109Z,98245.48
2023-01-29T14:21:54.589Z,98239.80
2023-01-29T14:24:52.986Z,98234.07
2023-01-29T14:27:46.446Z,98234.61
2023-01-29T14:30:18.987Z,98237.19
2023-01-29T14:33:35.503Z,98241.82
2023-01-29T14:36:40.882Z,98242.61
2023-01-29T14:39:55.815Z,98245.82
2023-01-29T14:43:31.954Z,98239.23
2023-01-29T14:46:35.678Z,98235.87
2023-01-29T14:49:45.780Z,98238.57
2023-01-29T14:53:14.456Z,98246.57
2023-01-29T14:57:03.814Z,98245.59
2023-01-29T14:59:40.096Z,98246.98
2023-01-29T15:02:33.413Z,98245.61
2023-01-29T15:05:02.856Z,98237.80
2023-01-29T15:07:39.501Z,98234.05
2023-01-29T15:11:22.651Z,98230.16
2023-01-29T15:14:21.678Z,98233.71
2023-01-29T15:17:38.301Z,98232.05
2023-01-29T15:21:30.138Z,98236.52
2023-01-29T15:25:06.248Z,98240.28
2023-01-29T15:28:36.273Z,98241.17
2023-01-29T15:31:30.689Z,98227.11
2023-01-29T15:34:22.200Z,98228.74
2023-01-29T15:37:34.323Z,98238.63
2023-01-29T15:40:41.798Z,98241.88
2023-01-29T15:43:46.564Z,98238.43
2023-01-29T15:46:39.099Z,98224.94
2023-01-29T15:50:06.560Z,98212.46
2023-01-29T15:52:57.312Z,98217.05
2023-01-29T15:55:35.937Z,98221.98
2023-01-29T15:58:03.846Z,98220.02
2023-01-29T16:00:34.227Z,98218.95
2023-01-29T16:03:15.138Z,98218.61
2023-01-29T16:06:03.108Z,98216.58
2023-01-29T16:08:32.433Z,98215.05
2023-01-29T16:11:24.178Z,98212.05
2023-01-29T16:14:00.257Z,98203.89
2023-01-29T16:17:11.946Z,98196.90
2023-01-29T16:20:06.689Z,98199.25
2023-01-29T16:22:58.413Z,98195.70
2023-01-29T16:26:06.759Z,98198.30
2023-01-29T16:29:36.249Z,98201.42
2023-01-29T16:32:29.982Z,98195.20
2023-01-29T16:35:21.380Z,98198.05
2023-01-29T16:37:52.050Z,98194.88
2023-01-29T16:40:36.662Z,98194.75
2023-01-29T16:43:53.049Z,98193.70
2023-01-29T16:46:56.592Z,98205.77
2023-01-29T16:49:34.908Z,98209.32
2023-01-29T16:52:44.524Z,98208.77
2023-01-29T16:55:33.086Z,98206.05
2023-01-29T16:58:47.540Z,98200.44
2023-01-29T17:01:55.525Z,98199.02
2023-01-29T17:05:26.761Z,98191.02
2023-01-29T17:09:18.393Z,98190.86
2023-01-29T17:12:47.738Z,98187.98
2023-01-29T17:16:48.021Z,98189.98
2023-01-29T17:20:40.058Z,98182.57
2023-01-29T17:24:28.396Z,98176.38
2023-01-29T17:28:26.222Z,98173.55
2023-01-29T17:32:19.509Z,98174.65
2023-01-29T17:36:10.557Z,98171.48
2023-01-29T17:39:58.978Z,98170.61
2023-01-29T17:43:42.449Z,98167.46
2023-01-29T17:46:21.323Z,98167.35
2023-01-29T17:48:53.396Z,98165.32
2023-01-29T17:51:23.449Z,98158.27
2023-01-29T17:53:53.040Z,98154.34
2023-01-29T17:56:33.689Z,98153.77
2023-01-29T17:59:03.063Z,98155.22
2023-01-29T18:01:31.437Z,98150.19
2023-01-29T18:04:00.438Z,98146.65
2023-01-29T18:06:32.703Z,98149.35
2023-01-29T18:09:00.625Z,98154.98
2023-01-29T18:11:30.183Z,98153.14
2023-01-29T18:13:58.493Z,98152.83
2023-01-29T18:16:29.687Z,98148.29
2023-01-29T18:18:58.148Z,98146.55
2023-01-29T18:21:26.892Z,98149.08
2023-01-29T18:23:55.352Z,98151.91
2023-01-29T18:26:23.815Z,98148.57
2023-01-29T18:28:53.605Z,98143.41
2023-01-29T18:31:22.360Z,98142.52
2023-01-29T18:33:50.710Z,98142.64
2023-01-29T18:36:23.666Z,98145.34
2023-01-29T18:38:55.519Z,98145.38
2023-01-29T18:41:24.627Z,98144.89
2023-01-29T18:43:54.203Z,98148.33
2023-01-29T18:46:24.947Z,98147.77
2023-01-29T18:48:53.914Z,98148.15
2023-01-29T18:51:22.041Z,98140.38
2023-01-29T18:53:53.735Z,98138.36
2023-01-29T18:56:22.281Z,98136.77
2023-01-29T19:02:50.331Z,98124.60
2023-01-29T19:05:24.021Z,98122.87
2023-01-29T19:07:53.674Z,98119.30
2023-01-29T19:10:22.604Z,98116.45
2023-01-29T19:12:51.392Z,98115.67
2023-01-29T19:15:22.433Z,98116.38
2023-01-29T19:17:53.894Z,98118.02
2023-01-29T19:20:24.701Z,98111.63
2023-01-29T19:22:53.377Z,98108.13
2023-01-29T19:25:24.823Z,98107.31
2023-01-29T19:27:56.095Z,98105.63
2023-01-29T19:30:24.592Z,98110.02
2023-01-29T19:32:53.685Z,98110.02
2023-01-29T19:35:23.230Z,98103.73
2023-01-29T19:37:51.029Z,98100.63
2023-01-29T19:40:20.283Z,98097.36
2023-01-29T19:42:50.139Z,98101.23
2023-01-29T19:45:18.695Z,98097.84
2023-01-29T19:48:06.058Z,98101.19
2023-01-29T19:50:34.883Z,98096.25
2023-01-29T19:53:03.149Z,98095.43
2023-01-29T19:55:35.418Z,98099.95
2023-01-29T19:58:05.722Z,98098.09
2023-01-29T20:00:49.520Z,98100.39
2023-01-29T20:03:17.549Z,98098.96
2023-01-29T20:05:49.049Z,98097.44
2023-01-29T20:08:19.591Z,98091.89
2023-01-29T20:10:48.897Z,98090.86
2023-01-29T20:13:17.786Z,98088.05
2023-01-29T20:15:52.140Z,98091.61
2023-01-29T20:18:25.201Z,98087.30
2023-01-29T20:20:56.763Z,98088.02
2023-01-29T20:23:37.301Z,98081.95
2023-01-29T20:26:08.467Z,98080.79
2023-01-29T20:28:38.695Z,98080.73
2023-01-29T20:31:09.555Z,98082.58
2023-01-29T20:33:39.627Z,98073.95
2023-01-29T20:36:10.929Z,98074.80
2023-01-29T20:38:40.967Z,98077.92
2023-01-29T20:41:19.815Z,98077.23
2023-01-29T20:43:50.853Z,98072.36
2023-01-29T20:46:19.845Z,98071.18
2023-01-29T20:48:49.970Z,98072.71
2023-01-29T20:51:18.775Z,98071.89
2023-01-29T20:53:49.253Z,98067.11
2023-01-29T20:56:24.570Z,98068.03
2023-01-29T20:59:04.407Z,98066.90
2023-01-29T21:01:32.415Z,98061.09
2023-01-29T21:04:00.656Z,98058.56
2023-01-29T21:06:30.816Z,98053.46
2023-01-29T21:08:59.106Z,98050.33
2023-01-29T21:11:27.315Z,98052.13
2023-01-29T21:14:00.430Z,98041.20
2023-01-29T21:16:28.608Z,98036.60
2023-01-29T21:18:58.657Z,98028.90
2023-01-29T21:21:27.232Z,98024.27
2023-01-29T21:23:56.802Z,98025.84
2023-01-29T21:26:26.020Z,98018.36
2023-01-29T21:28:53.929Z,98011.17
2023-01-29T21:31:22.463Z,98013.81
2023-01-29T21:33:51.387Z,98008.18
2023-01-29T21:36:19.133Z,98003.15
2023-01-29T21:38:46.706Z,98004.92
2023-01-29T21:41:14.700Z,98001.91
2023-01-29T21:43:46.189Z,98005.83
2023-01-29T21:46:14.239Z,97999.71
2023-01-29T21:48:41.968Z,97996.48
2023-01-29T21:51:09.742Z,97993.36
2023-01-29T21:53:37.821Z,97990.81
2023-01-29T21:56:06.324Z,97988.17
2023-01-29T21:58:33.913Z,97986.47
2023-01-29T22:01:36.725Z,97983.97
2023-01-29T22:03:48.959Z,97975.72
2023-01-29T22:06:16.288Z,97975.30
2023-01-29T22:08:43.737Z,97970.56
2023-01-29T22:11:11.449Z,97966.55
2023-01-29T22:13:39.223Z,97962.27
2023-01-29T22:16:06.877Z,97955.65
2023-01-29T22:18:35.228Z,97960.04
2023-01-29T22:21:05.578Z,97954.90
2023-01-29T22:23:32.961Z,97946.59
2023-01-29T22:26:05.223Z,97940.10
2023-01-29T22:28:32.763Z,97934.78
2023-01-29T22:31:04.845Z,97929.88
2023-01-29T22:33:33.733Z,97926.23
2023-01-29T22:36:01.244Z,97919.11
2023-01-29T22:38:29.453Z,97916.02
2023-01-29T22:40:58.177Z,97915.62
2023-01-29T22:43:29.705Z,97911.67
2023-01-29T22:45:57.603Z,97911.25
2023-01-29T22:48:25.077Z,97910.48
2023-01-29T22:51:12.118Z,97910.97
2023-01-29T22:53:41.304Z,97903.63
2023-01-29T22:56:09.769Z,97902.53
2023-01-29T22:58:37.528Z,97895.10
2023-01-29T23:01:05.621Z,97889.86
2023-01-29T23:03:33.225Z,97882.76
2023-01-29T23:06:01.318Z,97874.36
2023-01-29T23:08:28.545Z,97875.51
2023-01-29T23:10:58.840Z,97869.25
2023-01-29T23:13:26.903Z,97860.88
2023-01-29T23:16:00.763Z,97858.58
2023-01-29T23:18:28.106Z,97853.27
2023-01-29T23:20:59.028Z,97850.02
2023-01-29T23:23:29.360Z,97850.61
2023-01-29T23:26:19.918Z,97848.13
2023-01-29T23:28:47.855Z,97838.34
2023-01-29T23:31:15.908Z,97824.92
2023-01-29T23:33:44.541Z,97814.03
2023-01-29T23:36:12.185Z,97808.42
2023-01-29T23:38:39.665Z,97805.24
2023-01-29T23:41:07.356Z,97798.95
2023-01-29T23:43:35.542Z,97792.09
2023-01-29T23:46:02.996Z,97791.66
2023-01-29T23:48:30.387Z,97790.48
2023-01-29T23:50:58.488Z,97785.44
2023-01-29T23:53:26.697Z,97782.97
2023-01-29T23:55:59.964Z,97773.52
2023-01-29T23:58:28.922Z,97765.92
